sensor_id;sensor_type;location;lat;lon;timestamp;temperature;humidity
15357;DHT22;7778;48.792;9.260;2023-02-08T00:00:44;-2.50;99.90
15357;DHT22;7778;48.792;9.260;2023-02-08T00:03:30;-2.50;99.90
15357;DHT22;7778;48.792;9.260;2023-02-08T00:06:17;-2.50;99.90
15357;DHT22;7778;48.792;9.260;2023-02-08T00:09:03;-2.50;99.90
15357;DHT22;7778;48.792;9.260;2023-02-08T00:11:48;-2.50;99.90
15357;DHT22;7778;48.792;9.260;2023-02-08T00:14:35;-2.50;99.90
15357;DHT22;7778;48.792;9.260;2023-02-08T00:17:21;-2.50;99.90
15357;DHT22;7778;48.792;9.260;2023-02-08T00:20:09;-2.60;99.90
15357;DHT22;7778;48.792;9.260;2023-02-08T00:22:55;-2.60;99.90
15357;DHT22;7778;48.792;9.260;2023-02-08T00:25:41;-2.60;99.90
15357;DHT22;7778;48.792;9.260;2023-02-08T00:28:27;-2.70;99.90
15357;DHT22;7778;48.792;9.260;2023-02-08T00:31:13;-2.60;99.90
15357;DHT22;7778;48.792;9.260;2023-02-08T00:33:58;-2.90;99.90
15357;DHT22;7778;48.792;9.260;2023-02-08T00:36:45;-2.90;99.90
15357;DHT22;7778;48.792;9.260;2023-02-08T00:39:32;-2.80;99.90
15357;DHT22;7778;48.792;9.260;2023-02-08T00:42:18;-2.80;99.90
15357;DHT22;7778;48.792;9.260;2023-02-08T00:45:04;-2.80;99.90
15357;DHT22;7778;48.792;9.260;2023-02-08T00:47:49;-2.80;99.90
15357;DHT22;7778;48.792;9.260;2023-02-08T00:50:35;-2.80;99.90
15357;DHT22;7778;48.792;9.260;2023-02-08T00:53:22;-2.80;99.90
15357;DHT22;7778;48.792;9.260;2023-02-08T00:56:09;-2.80;99.90
15357;DHT22;7778;48.792;9.260;2023-02-08T00:58:55;-2.90;99.90
15357;DHT22;7778;48.792;9.260;2023-02-08T01:01:41;-2.90;99.90
15357;DHT22;7778;48.792;9.260;2023-02-08T01:04:26;-3.10;99.90
15357;DHT22;7778;48.792;9.260;2023-02-08T01:07:12;-3.10;99.90
15357;DHT22;7778;48.792;9.260;2023-02-08T01:09:59;-3.20;99.90
15357;DHT22;7778;48.792;9.260;2023-02-08T01:12:44;-3.20;99.90
15357;DHT22;7778;48.792;9.260;2023-02-08T01:15:30;-3.20;99.90
15357;DHT22;7778;48.792;9.260;2023-02-08T01:18:16;-3.10;99.90
15357;DHT22;7778;48.792;9.260;2023-02-08T01:21:04;-3.20;99.90
15357;DHT22;7778;48.792;9.260;2023-02-08T01:23:51;-3.40;99.90
15357;DHT22;7778;48.792;9.260;2023-02-08T01:26:38;-3.30;99.90
15357;DHT22;7778;48.792;9.260;2023-02-08T01:29:24;-3.30;99.90
15357;DHT22;7778;48.792;9.260;2023-02-08T01:32:10;-3.40;99.90
15357;DHT22;7778;48.792;9.260;2023-02-08T01:34:55;-3.50;99.90
15357;DHT22;7778;48.792;9.260;2023-02-08T01:37:41;-3.50;99.90
15357;DHT22;7778;48.792;9.260;2023-02-08T01:40:27;-3.50;99.90
15357;DHT22;7778;48.792;9.260;2023-02-08T01:43:21;-3.60;99.90
15357;DHT22;7778;48.792;9.260;2023-02-08T01:46:08;-3.50;99.90
15357;DHT22;7778;48.792;9.260;2023-02-08T01:48:56;-3.60;99.90
15357;DHT22;7778;48.792;9.260;2023-02-08T01:51:48;-3.60;99.90
15357;DHT22;7778;48.792;9.260;2023-02-08T01:54:38;-3.60;99.90
15357;DHT22;7778;48.792;9.260;2023-02-08T01:57:26;-3.60;99.90
15357;DHT22;7778;48.792;9.260;2023-02-08T02:00:17;-3.60;99.90
15357;DHT22;7778;48.792;9.260;2023-02-08T02:03:05;-3.50;99.90
15357;DHT22;7778;48.792;9.260;2023-02-08T02:05:54;-3.40;99.90
15357;DHT22;7778;48.792;9.260;2023-02-08T02:08:49;-3.30;99.90
15357;DHT22;7778;48.792;9.260;2023-02-08T02:11:38;-3.60;99.90
15357;DHT22;7778;48.792;9.260;2023-02-08T02:14:23;-3.70;99.90
15357;DHT22;7778;48.792;9.260;2023-02-08T02:17:12;-3.50;99.90
15357;DHT22;7778;48.792;9.260;2023-02-08T02:20:03;-3.50;99.90
15357;DHT22;7778;48.792;9.260;2023-02-08T02:23:21;-3.50;99.90
15357;DHT22;7778;48.792;9.260;2023-02-08T02:26:52;-3.50;99.90
15357;DHT22;7778;48.792;9.260;2023-02-08T02:33:42;-3.40;99.90
15357;DHT22;7778;48.792;9.260;2023-02-08T02:36:44;-3.30;99.90
15357;DHT22;7778;48.792;9.260;2023-02-08T02:39:38;-3.40;99.90
15357;DHT22;7778;48.792;9.260;2023-02-08T02:42:31;-3.40;99.90
15357;DHT22;7778;48.792;9.260;2023-02-08T02:45:44;-3.40;99.90
15357;DHT22;7778;48.792;9.260;2023-02-08T02:48:39;-3.50;99.90
15357;DHT22;7778;48.792;9.260;2023-02-08T02:51:31;-3.50;99.90
15357;DHT22;7778;48.792;9.260;2023-02-08T02:54:23;-3.50;99.90
15357;DHT22;7778;48.792;9.260;2023-02-08T02:57:16;-3.60;99.90
15357;DHT22;7778;48.792;9.260;2023-02-08T03:00:07;-3.50;99.90
15357;DHT22;7778;48.792;9.260;2023-02-08T03:02:53;-3.60;99.90
15357;DHT22;7778;48.792;9.260;2023-02-08T03:05:43;-3.60;99.90
15357;DHT22;7778;48.792;9.260;2023-02-08T03:08:59;-3.60;99.90
15357;DHT22;7778;48.792;9.260;2023-02-08T03:11:56;-3.70;99.90
15357;DHT22;7778;48.792;9.260;2023-02-08T03:14:54;-3.70;99.90
15357;DHT22;7778;48.792;9.260;2023-02-08T03:17:54;-3.80;99.90
15357;DHT22;7778;48.792;9.260;2023-02-08T03:20:52;-3.80;99.90
15357;DHT22;7778;48.792;9.260;2023-02-08T03:23:55;-3.80;99.90
15357;DHT22;7778;48.792;9.260;2023-02-08T03:26:52;-3.80;99.90
15357;DHT22;7778;48.792;9.260;2023-02-08T03:29:44;-3.80;99.90
15357;DHT22;7778;48.792;9.260;2023-02-08T03:32:38;-3.80;99.90
15357;DHT22;7778;48.792;9.260;2023-02-08T03:35:30;-3.80;99.90
15357;DHT22;7778;48.792;9.260;2023-02-08T03:38:24;-3.80;99.90
15357;DHT22;7778;48.792;9.260;2023-02-08T03:41:15;-3.80;99.90
15357;DHT22;7778;48.792;9.260;2023-02-08T03:44:08;-3.90;99.90
15357;DHT22;7778;48.792;9.260;2023-02-08T03:46:59;-3.90;99.90
15357;DHT22;7778;48.792;9.260;2023-02-08T03:49:49;-3.90;99.90
15357;DHT22;7778;48.792;9.260;2023-02-08T03:52:37;-3.90;99.90
15357;DHT22;7778;48.792;9.260;2023-02-08T03:55:27;-3.90;99.90
15357;DHT22;7778;48.792;9.260;2023-02-08T03:58:18;-3.90;99.90
15357;DHT22;7778;48.792;9.260;2023-02-08T04:01:12;-3.90;99.90
15357;DHT22;7778;48.792;9.260;2023-02-08T04:04:01;-4.00;99.90
15357;DHT22;7778;48.792;9.260;2023-02-08T04:06:47;-4.00;99.90
15357;DHT22;7778;48.792;9.260;2023-02-08T04:09:32;-3.90;99.90
15357;DHT22;7778;48.792;9.260;2023-02-08T04:12:20;-4.00;99.90
15357;DHT22;7778;48.792;9.260;2023-02-08T04:15:06;-4.00;99.90
15357;DHT22;7778;48.792;9.260;2023-02-08T04:17:53;-4.10;99.90
15357;DHT22;7778;48.792;9.260;2023-02-08T04:20:39;-4.10;99.90
15357;DHT22;7778;48.792;9.260;2023-02-08T04:23:24;-4.10;99.90
15357;DHT22;7778;48.792;9.260;2023-02-08T04:26:10;-4.10;99.90
15357;DHT22;7778;48.792;9.260;2023-02-08T04:28:57;-4.10;99.90
15357;DHT22;7778;48.792;9.260;2023-02-08T04:31:42;-4.10;99.90
15357;DHT22;7778;48.792;9.260;2023-02-08T04:34:28;-4.00;99.90
15357;DHT22;7778;48.792;9.260;2023-02-08T04:37:14;-4.10;99.90
15357;DHT22;7778;48.792;9.260;2023-02-08T04:39:59;-4.10;99.90
15357;DHT22;7778;48.792;9.260;2023-02-08T04:42:45;-4.10;99.90
15357;DHT22;7778;48.792;9.260;2023-02-08T04:45:32;-4.20;99.90
15357;DHT22;7778;48.792;9.260;2023-02-08T04:48:18;-4.20;99.90
15357;DHT22;7778;48.792;9.260;2023-02-08T04:51:04;-4.30;99.90
15357;DHT22;7778;48.792;9.260;2023-02-08T04:53:49;-4.10;99.90
15357;DHT22;7778;48.792;9.260;2023-02-08T04:56:35;-4.40;99.90
15357;DHT22;7778;48.792;9.260;2023-02-08T04:59:21;-4.50;99.90
15357;DHT22;7778;48.792;9.260;2023-02-08T05:02:08;-4.50;99.90
15357;DHT22;7778;48.792;9.260;2023-02-08T05:04:54;-4.50;99.90
15357;DHT22;7778;48.792;9.260;2023-02-08T05:07:39;-4.40;99.90
15357;DHT22;7778;48.792;9.260;2023-02-08T05:10:25;-4.40;99.90
15357;DHT22;7778;48.792;9.260;2023-02-08T05:13:11;-4.40;99.90
15357;DHT22;7778;48.792;9.260;2023-02-08T05:15:56;-4.40;99.90
15357;DHT22;7778;48.792;9.260;2023-02-08T05:18:44;-4.50;99.90
15357;DHT22;7778;48.792;9.260;2023-02-08T05:21:29;-4.50;99.90
15357;DHT22;7778;48.792;9.260;2023-02-08T05:24:15;-4.50;99.90
15357;DHT22;7778;48.792;9.260;2023-02-08T05:27:01;-4.50;99.90
15357;DHT22;7778;48.792;9.260;2023-02-08T05:29:47;-4.50;99.90
15357;DHT22;7778;48.792;9.260;2023-02-08T05:32:33;-4.50;99.90
15357;DHT22;7778;48.792;9.260;2023-02-08T05:35:20;-4.50;99.90
15357;DHT22;7778;48.792;9.260;2023-02-08T05:38:05;-4.50;99.90
15357;DHT22;7778;48.792;9.260;2023-02-08T05:40:51;-4.50;99.90
15357;DHT22;7778;48.792;9.260;2023-02-08T05:43:37;-4.50;99.90
15357;DHT22;7778;48.792;9.260;2023-02-08T05:46:22;-4.50;99.90
15357;DHT22;7778;48.792;9.260;2023-02-08T05:49:08;-4.60;99.90
15357;DHT22;7778;48.792;9.260;2023-02-08T05:51:55;-4.60;99.90
15357;DHT22;7778;48.792;9.260;2023-02-08T05:54:41;-4.60;99.90
15357;DHT22;7778;48.792;9.260;2023-02-08T05:57:26;-4.60;99.90
15357;DHT22;7778;48.792;9.260;2023-02-08T06:00:13;-4.60;99.90
15357;DHT22;7778;48.792;9.260;2023-02-08T06:02:59;-4.70;99.90
15357;DHT22;7778;48.792;9.260;2023-02-08T06:05:45;-4.60;99.90
15357;DHT22;7778;48.792;9.260;2023-02-08T06:08:32;-4.60;99.90
15357;DHT22;7778;48.792;9.260;2023-02-08T06:11:18;-4.60;99.90
15357;DHT22;7778;48.792;9.260;2023-02-08T06:14:03;-4.60;99.90
15357;DHT22;7778;48.792;9.260;2023-02-08T06:16:49;-4.60;99.90
15357;DHT22;7778;48.792;9.260;2023-02-08T06:19:34;-4.60;99.90
15357;DHT22;7778;48.792;9.260;2023-02-08T06:22:20;-4.60;99.90
15357;DHT22;7778;48.792;9.260;2023-02-08T06:25:07;-4.60;99.90
15357;DHT22;7778;48.792;9.260;2023-02-08T06:27:53;-4.70;99.90
15357;DHT22;7778;48.792;9.260;2023-02-08T06:30:38;-4.70;99.90
15357;DHT22;7778;48.792;9.260;2023-02-08T06:33:24;-4.70;99.90
15357;DHT22;7778;48.792;9.260;2023-02-08T06:36:10;-4.80;99.90
15357;DHT22;7778;48.792;9.260;2023-02-08T06:38:55;-4.80;99.90
15357;DHT22;7778;48.792;9.260;2023-02-08T06:41:43;-4.80;99.90
15357;DHT22;7778;48.792;9.260;2023-02-08T06:44:28;-4.90;99.90
15357;DHT22;7778;48.792;9.260;2023-02-08T06:47:14;-4.90;99.90
15357;DHT22;7778;48.792;9.260;2023-02-08T06:50:00;-4.80;99.90
15357;DHT22;7778;48.792;9.260;2023-02-08T06:52:46;-4.80;99.90
15357;DHT22;7778;48.792;9.260;2023-02-08T06:55:32;-4.80;99.90
15357;DHT22;7778;48.792;9.260;2023-02-08T06:58:19;-4.70;99.90
15357;DHT22;7778;48.792;9.260;2023-02-08T07:01:04;-4.50;99.90
15357;DHT22;7778;48.792;9.260;2023-02-08T07:03:50;-4.60;99.90
15357;DHT22;7778;48.792;9.260;2023-02-08T07:06:36;-4.80;99.90
15357;DHT22;7778;48.792;9.260;2023-02-08T07:09:21;-4.80;99.90
15357;DHT22;7778;48.792;9.260;2023-02-08T07:12:08;-4.70;99.90
15357;DHT22;7778;48.792;9.260;2023-02-08T07:14:55;-4.70;99.90
15357;DHT22;7778;48.792;9.260;2023-02-08T07:17:40;-4.60;99.90
15357;DHT22;7778;48.792;9.260;2023-02-08T07:20:26;-4.60;99.90
15357;DHT22;7778;48.792;9.260;2023-02-08T07:23:12;-4.50;99.90
15357;DHT22;7778;48.792;9.260;2023-02-08T07:25:57;-4.50;99.90
15357;DHT22;7778;48.792;9.260;2023-02-08T07:28:44;-4.50;99.90
15357;DHT22;7778;48.792;9.260;2023-02-08T07:31:31;-4.40;99.90
15357;DHT22;7778;48.792;9.260;2023-02-08T07:34:17;-4.30;99.90
15357;DHT22;7778;48.792;9.260;2023-02-08T07:37:04;-4.30;99.90
15357;DHT22;7778;48.792;9.260;2023-02-08T07:39:50;-4.20;99.90
15357;DHT22;7778;48.792;9.260;2023-02-08T07:42:36;-4.20;99.90
15357;DHT22;7778;48.792;9.260;2023-02-08T07:45:21;-4.20;99.90
15357;DHT22;7778;48.792;9.260;2023-02-08T07:48:08;-4.10;99.90
15357;DHT22;7778;48.792;9.260;2023-02-08T07:50:54;-4.10;99.90
15357;DHT22;7778;48.792;9.260;2023-02-08T07:53:40;-4.10;99.90
15357;DHT22;7778;48.792;9.260;2023-02-08T07:56:25;-4.00;99.90
15357;DHT22;7778;48.792;9.260;2023-02-08T07:59:11;-3.90;99.90
15357;DHT22;7778;48.792;9.260;2023-02-08T08:01:57;-3.90;99.90
15357;DHT22;7778;48.792;9.260;2023-02-08T08:04:44;-3.90;99.90
15357;DHT22;7778;48.792;9.260;2023-02-08T08:07:30;-3.90;99.90
15357;DHT22;7778;48.792;9.260;2023-02-08T08:10:16;-3.90;99.90
15357;DHT22;7778;48.792;9.260;2023-02-08T08:13:01;-3.80;99.90
15357;DHT22;7778;48.792;9.260;2023-02-08T08:15:47;-3.80;99.90
15357;DHT22;7778;48.792;9.260;2023-02-08T08:18:32;-3.90;99.90
15357;DHT22;7778;48.792;9.260;2023-02-08T08:21:20;-3.80;99.90
15357;DHT22;7778;48.792;9.260;2023-02-08T08:24:06;-3.70;99.90
15357;DHT22;7778;48.792;9.260;2023-02-08T08:26:52;-3.60;99.90
15357;DHT22;7778;48.792;9.260;2023-02-08T08:29:37;-3.50;99.90
15357;DHT22;7778;48.792;9.260;2023-02-08T08:32:23;-3.40;99.90
15357;DHT22;7778;48.792;9.260;2023-02-08T08:35:09;-3.40;99.90
15357;DHT22;7778;48.792;9.260;2023-02-08T08:37:56;-3.30;99.90
15357;DHT22;7778;48.792;9.260;2023-02-08T08:40:42;-3.20;99.90
15357;DHT22;7778;48.792;9.260;2023-02-08T08:43:27;-3.20;99.90
15357;DHT22;7778;48.792;9.260;2023-02-08T08:46:13;-3.00;99.90
15357;DHT22;7778;48.792;9.260;2023-02-08T08:48:59;-3.00;99.90
15357;DHT22;7778;48.792;9.260;2023-02-08T08:51:45;-2.80;99.90
15357;DHT22;7778;48.792;9.260;2023-02-08T08:54:32;-2.80;99.90
15357;DHT22;7778;48.792;9.260;2023-02-08T08:57:17;-2.70;99.90
15357;DHT22;7778;48.792;9.260;2023-02-08T09:00:03;-2.60;99.90
15357;DHT22;7778;48.792;9.260;2023-02-08T09:02:49;-2.50;99.90
15357;DHT22;7778;48.792;9.260;2023-02-08T09:05:35;-2.50;99.90
15357;DHT22;7778;48.792;9.260;2023-02-08T09:08:21;-2.40;99.90
15357;DHT22;7778;48.792;9.260;2023-02-08T09:11:09;-2.30;99.90
15357;DHT22;7778;48.792;9.260;2023-02-08T09:13:56;-2.10;99.90
15357;DHT22;7778;48.792;9.260;2023-02-08T09:16:42;-1.30;99.90
15357;DHT22;7778;48.792;9.260;2023-02-08T09:19:31;0.10;99.90
15357;DHT22;7778;48.792;9.260;2023-02-08T09:22:16;0.30;99.90
15357;DHT22;7778;48.792;9.260;2023-02-08T09:25:03;-0.30;99.90
15357;DHT22;7778;48.792;9.260;2023-02-08T09:27:52;-0.20;99.90
15357;DHT22;7778;48.792;9.260;2023-02-08T09:30:37;0.90;99.90
15357;DHT22;7778;48.792;9.260;2023-02-08T09:33:23;2.20;99.90
15357;DHT22;7778;48.792;9.260;2023-02-08T09:36:09;2.60;99.90
15357;DHT22;7778;48.792;9.260;2023-02-08T09:38:57;2.90;99.90
15357;DHT22;7778;48.792;9.260;2023-02-08T09:42:05;3.30;99.90
15357;DHT22;7778;48.792;9.260;2023-02-08T09:45:21;3.70;99.90
15357;DHT22;7778;48.792;9.260;2023-02-08T09:48:19;2.70;99.90
15357;DHT22;7778;48.792;9.260;2023-02-08T09:51:12;2.10;99.90
15357;DHT22;7778;48.792;9.260;2023-02-08T09:54:07;2.70;99.90
15357;DHT22;7778;48.792;9.260;2023-02-08T09:57:09;2.80;99.90
15357;DHT22;7778;48.792;9.260;2023-02-08T10:00:02;2.40;99.90
15357;DHT22;7778;48.792;9.260;2023-02-08T10:02:53;3.00;99.90
15357;DHT22;7778;48.792;9.260;2023-02-08T10:05:41;4.20;99.90
15357;DHT22;7778;48.792;9.260;2023-02-08T10:08:28;5.20;99.90
15357;DHT22;7778;48.792;9.260;2023-02-08T10:11:35;5.70;99.30
15357;DHT22;7778;48.792;9.260;2023-02-08T10:14:40;5.20;99.90
15357;DHT22;7778;48.792;9.260;2023-02-08T10:17:51;5.60;97.70
15357;DHT22;7778;48.792;9.260;2023-02-08T10:21:02;6.70;97.30
15357;DHT22;7778;48.792;9.260;2023-02-08T10:24:15;6.20;92.30
15357;DHT22;7778;48.792;9.260;2023-02-08T10:27:17;5.80;94.70
15357;DHT22;7778;48.792;9.260;2023-02-08T10:30:18;6.40;93.80
15357;DHT22;7778;48.792;9.260;2023-02-08T10:33:15;6.60;91.80
15357;DHT22;7778;48.792;9.260;2023-02-08T10:36:13;6.60;92.70
15357;DHT22;7778;48.792;9.260;2023-02-08T10:39:02;6.70;91.10
15357;DHT22;7778;48.792;9.260;2023-02-08T10:41:48;5.50;91.80
15357;DHT22;7778;48.792;9.260;2023-02-08T10:44:46;4.70;91.40
15357;DHT22;7778;48.792;9.260;2023-02-08T10:47:41;4.80;92.60
15357;DHT22;7778;48.792;9.260;2023-02-08T10:50:35;4.40;92.20
15357;DHT22;7778;48.792;9.260;2023-02-08T10:53:21;4.60;93.10
15357;DHT22;7778;48.792;9.260;2023-02-08T10:56:20;4.60;92.20
15357;DHT22;7778;48.792;9.260;2023-02-08T10:59:20;4.90;93.80
15357;DHT22;7778;48.792;9.260;2023-02-08T11:02:16;5.90;91.70
15357;DHT22;7778;48.792;9.260;2023-02-08T11:05:08;5.50;91.30
15357;DHT22;7778;48.792;9.260;2023-02-08T11:08:09;5.70;91.00
15357;DHT22;7778;48.792;9.260;2023-02-08T11:10:59;5.20;91.60
15357;DHT22;7778;48.792;9.260;2023-02-08T11:13:48;5.90;91.80
15357;DHT22;7778;48.792;9.260;2023-02-08T11:16:36;5.40;91.40
15357;DHT22;7778;48.792;9.260;2023-02-08T11:19:30;6.10;91.20
15357;DHT22;7778;48.792;9.260;2023-02-08T11:22:21;7.30;89.50
15357;DHT22;7778;48.792;9.260;2023-02-08T11:25:30;7.90;86.50
15357;DHT22;7778;48.792;9.260;2023-02-08T11:28:26;8.00;84.80
15357;DHT22;7778;48.792;9.260;2023-02-08T11:31:19;7.40;83.80
15357;DHT22;7778;48.792;9.260;2023-02-08T11:34:07;7.70;85.60
15357;DHT22;7778;48.792;9.260;2023-02-08T11:36:53;8.30;82.70
15357;DHT22;7778;48.792;9.260;2023-02-08T11:39:44;7.90;79.60
15357;DHT22;7778;48.792;9.260;2023-02-08T11:42:38;6.80;77.80
15357;DHT22;7778;48.792;9.260;2023-02-08T11:45:29;7.30;81.60
15357;DHT22;7778;48.792;9.260;2023-02-08T11:48:22;7.80;79.00
15357;DHT22;7778;48.792;9.260;2023-02-08T11:51:13;6.90;79.50
15357;DHT22;7778;48.792;9.260;2023-02-08T11:54:32;6.80;79.50
15357;DHT22;7778;48.792;9.260;2023-02-08T11:57:21;7.10;82.60
15357;DHT22;7778;48.792;9.260;2023-02-08T12:00:18;7.10;80.40
15357;DHT22;7778;48.792;9.260;2023-02-08T12:03:10;7.00;81.50
15357;DHT22;7778;48.792;9.260;2023-02-08T12:06:12;7.30;80.20
15357;DHT22;7778;48.792;9.260;2023-02-08T12:09:22;6.90;81.70
15357;DHT22;7778;48.792;9.260;2023-02-08T12:12:24;6.90;81.90
15357;DHT22;7778;48.792;9.260;2023-02-08T12:15:23;6.60;83.20
15357;DHT22;7778;48.792;9.260;2023-02-08T12:18:22;6.50;82.10
15357;DHT22;7778;48.792;9.260;2023-02-08T12:21:31;6.00;83.00
15357;DHT22;7778;48.792;9.260;2023-02-08T12:24:27;6.00;87.30
15357;DHT22;7778;48.792;9.260;2023-02-08T12:27:29;5.60;84.90
15357;DHT22;7778;48.792;9.260;2023-02-08T12:30:29;5.60;87.60
15357;DHT22;7778;48.792;9.260;2023-02-08T12:33:30;5.40;86.40
15357;DHT22;7778;48.792;9.260;2023-02-08T12:36:34;5.50;90.80
15357;DHT22;7778;48.792;9.260;2023-02-08T12:39:34;5.40;88.10
15357;DHT22;7778;48.792;9.260;2023-02-08T12:42:50;5.10;87.70
15357;DHT22;7778;48.792;9.260;2023-02-08T12:45:58;5.10;89.40
15357;DHT22;7778;48.792;9.260;2023-02-08T12:49:21;4.90;90.50
15357;DHT22;7778;48.792;9.260;2023-02-08T12:52:22;4.80;90.70
15357;DHT22;7778;48.792;9.260;2023-02-08T12:55:17;4.80;89.60
15357;DHT22;7778;48.792;9.260;2023-02-08T12:58:20;4.70;91.40
15357;DHT22;7778;48.792;9.260;2023-02-08T13:01:14;4.90;90.70
15357;DHT22;7778;48.792;9.260;2023-02-08T13:04:04;5.10;90.80
15357;DHT22;7778;48.792;9.260;2023-02-08T13:06:55;5.00;90.50
15357;DHT22;7778;48.792;9.260;2023-02-08T13:09:47;5.00;90.80
15357;DHT22;7778;48.792;9.260;2023-02-08T13:12:39;5.10;90.20
15357;DHT22;7778;48.792;9.260;2023-02-08T13:15:34;5.10;91.00
15357;DHT22;7778;48.792;9.260;2023-02-08T13:18:27;5.00;90.20
15357;DHT22;7778;48.792;9.260;2023-02-08T13:21:18;4.80;91.10
15357;DHT22;7778;48.792;9.260;2023-02-08T13:24:14;4.90;91.30
15357;DHT22;7778;48.792;9.260;2023-02-08T13:27:10;4.60;90.50
15357;DHT22;7778;48.792;9.260;2023-02-08T13:30:00;4.60;92.30
15357;DHT22;7778;48.792;9.260;2023-02-08T13:32:47;4.50;91.40
15357;DHT22;7778;48.792;9.260;2023-02-08T13:35:36;4.50;91.70
15357;DHT22;7778;48.792;9.260;2023-02-08T13:38:27;4.60;91.50
15357;DHT22;7778;48.792;9.260;2023-02-08T13:41:16;4.40;91.90
15357;DHT22;7778;48.792;9.260;2023-02-08T13:44:05;4.40;92.60
15357;DHT22;7778;48.792;9.260;2023-02-08T13:46:52;4.50;91.90
15357;DHT22;7778;48.792;9.260;2023-02-08T13:49:50;4.50;92.70
15357;DHT22;7778;48.792;9.260;2023-02-08T13:52:52;4.40;92.30
15357;DHT22;7778;48.792;9.260;2023-02-08T13:56:02;4.30;92.50
15357;DHT22;7778;48.792;9.260;2023-02-08T13:58:59;4.30;92.70
15357;DHT22;7778;48.792;9.260;2023-02-08T14:05:44;4.30;92.90
15357;DHT22;7778;48.792;9.260;2023-02-08T14:08:39;4.20;93.20
15357;DHT22;7778;48.792;9.260;2023-02-08T14:11:35;4.20;94.70
15357;DHT22;7778;48.792;9.260;2023-02-08T14:14:27;4.20;94.00
15357;DHT22;7778;48.792;9.260;2023-02-08T14:17:18;4.10;93.70
15357;DHT22;7778;48.792;9.260;2023-02-08T14:20:06;4.10;94.70
15357;DHT22;7778;48.792;9.260;2023-02-08T14:23:01;4.00;93.90
15357;DHT22;7778;48.792;9.260;2023-02-08T14:25:50;4.00;94.10
15357;DHT22;7778;48.792;9.260;2023-02-08T14:28:42;4.00;94.30
15357;DHT22;7778;48.792;9.260;2023-02-08T14:31:37;3.90;94.70
15357;DHT22;7778;48.792;9.260;2023-02-08T14:34:31;3.90;95.30
15357;DHT22;7778;48.792;9.260;2023-02-08T14:37:27;3.90;95.60
15357;DHT22;7778;48.792;9.260;2023-02-08T14:40:32;3.80;95.70
15357;DHT22;7778;48.792;9.260;2023-02-08T14:43:31;3.80;95.90
15357;DHT22;7778;48.792;9.260;2023-02-08T14:46:41;3.70;95.90
15357;DHT22;7778;48.792;9.260;2023-02-08T14:49:34;3.60;96.90
15357;DHT22;7778;48.792;9.260;2023-02-08T14:52:23;3.50;97.00
15357;DHT22;7778;48.792;9.260;2023-02-08T14:55:16;3.50;97.40
15357;DHT22;7778;48.792;9.260;2023-02-08T14:58:04;3.50;97.00
15357;DHT22;7778;48.792;9.260;2023-02-08T15:01:04;3.40;97.30
15357;DHT22;7778;48.792;9.260;2023-02-08T15:03:59;3.40;97.90
15357;DHT22;7778;48.792;9.260;2023-02-08T15:07:16;3.40;97.50
15357;DHT22;7778;48.792;9.260;2023-02-08T15:10:09;3.30;98.20
15357;DHT22;7778;48.792;9.260;2023-02-08T15:12:58;3.30;98.10
15357;DHT22;7778;48.792;9.260;2023-02-08T15:15:51;3.20;98.30
15357;DHT22;7778;48.792;9.260;2023-02-08T15:18:39;3.10;98.50
15357;DHT22;7778;48.792;9.260;2023-02-08T15:21:30;3.10;98.50
15357;DHT22;7778;48.792;9.260;2023-02-08T15:24:21;3.10;98.70
15357;DHT22;7778;48.792;9.260;2023-02-08T15:27:19;3.10;99.20
15357;DHT22;7778;48.792;9.260;2023-02-08T15:30:22;3.00;99.00
15357;DHT22;7778;48.792;9.260;2023-02-08T15:33:15;3.00;99.80
15357;DHT22;7778;48.792;9.260;2023-02-08T15:36:04;3.00;99.80
15357;DHT22;7778;48.792;9.260;2023-02-08T15:38:51;2.90;99.80
15357;DHT22;7778;48.792;9.260;2023-02-08T15:41:38;2.90;99.70
15357;DHT22;7778;48.792;9.260;2023-02-08T15:44:25;2.80;99.80
15357;DHT22;7778;48.792;9.260;2023-02-08T15:47:16;2.70;99.90
15357;DHT22;7778;48.792;9.260;2023-02-08T15:50:06;2.70;99.90
15357;DHT22;7778;48.792;9.260;2023-02-08T15:53:02;2.60;99.90
15357;DHT22;7778;48.792;9.260;2023-02-08T15:55:51;2.60;99.90
15357;DHT22;7778;48.792;9.260;2023-02-08T15:58:44;2.50;99.90
15357;DHT22;7778;48.792;9.260;2023-02-08T16:01:30;2.50;99.70
15357;DHT22;7778;48.792;9.260;2023-02-08T16:04:16;2.40;99.90
15357;DHT22;7778;48.792;9.260;2023-02-08T16:07:04;2.40;99.80
15357;DHT22;7778;48.792;9.260;2023-02-08T16:09:50;2.30;99.60
15357;DHT22;7778;48.792;9.260;2023-02-08T16:12:36;2.40;99.70
15357;DHT22;7778;48.792;9.260;2023-02-08T16:15:36;2.10;99.90
15357;DHT22;7778;48.792;9.260;2023-02-08T16:18:33;2.10;99.90
15357;DHT22;7778;48.792;9.260;2023-02-08T16:21:28;2.10;99.90
15357;DHT22;7778;48.792;9.260;2023-02-08T16:24:24;2.00;99.90
15357;DHT22;7778;48.792;9.260;2023-02-08T16:27:18;2.00;99.90
15357;DHT22;7778;48.792;9.260;2023-02-08T16:30:16;1.90;99.90
15357;DHT22;7778;48.792;9.260;2023-02-08T16:33:07;1.80;99.90
15357;DHT22;7778;48.792;9.260;2023-02-08T16:35:54;1.70;99.90
15357;DHT22;7778;48.792;9.260;2023-02-08T16:42:33;1.60;99.90
15357;DHT22;7778;48.792;9.260;2023-02-08T16:45:23;1.80;99.90
15357;DHT22;7778;48.792;9.260;2023-02-08T16:48:27;1.50;99.90
15357;DHT22;7778;48.792;9.260;2023-02-08T16:51:19;1.50;99.90
15357;DHT22;7778;48.792;9.260;2023-02-08T16:54:06;1.30;99.90
15357;DHT22;7778;48.792;9.260;2023-02-08T16:56:56;1.20;99.90
15357;DHT22;7778;48.792;9.260;2023-02-08T16:59:45;1.30;99.90
15357;DHT22;7778;48.792;9.260;2023-02-08T17:02:31;1.30;99.90
15357;DHT22;7778;48.792;9.260;2023-02-08T17:05:18;1.30;99.90
15357;DHT22;7778;48.792;9.260;2023-02-08T17:08:06;1.30;99.90
15357;DHT22;7778;48.792;9.260;2023-02-08T17:10:53;1.20;99.90
15357;DHT22;7778;48.792;9.260;2023-02-08T17:13:41;1.20;99.90
15357;DHT22;7778;48.792;9.260;2023-02-08T17:16:29;1.10;99.90
15357;DHT22;7778;48.792;9.260;2023-02-08T17:19:17;1.20;99.90
15357;DHT22;7778;48.792;9.260;2023-02-08T17:22:03;1.00;99.90
15357;DHT22;7778;48.792;9.260;2023-02-08T17:24:48;1.00;99.90
15357;DHT22;7778;48.792;9.260;2023-02-08T17:27:34;1.00;99.90
15357;DHT22;7778;48.792;9.260;2023-02-08T17:30:22;0.90;99.90
15357;DHT22;7778;48.792;9.260;2023-02-08T17:33:12;0.90;99.90
15357;DHT22;7778;48.792;9.260;2023-02-08T17:36:01;0.90;99.90
15357;DHT22;7778;48.792;9.260;2023-02-08T17:38:47;0.80;99.90
15357;DHT22;7778;48.792;9.260;2023-02-08T17:41:33;0.70;99.90
15357;DHT22;7778;48.792;9.260;2023-02-08T17:44:19;0.70;99.90
15357;DHT22;7778;48.792;9.260;2023-02-08T17:47:05;0.70;99.90
15357;DHT22;7778;48.792;9.260;2023-02-08T17:49:52;0.50;99.90
15357;DHT22;7778;48.792;9.260;2023-02-08T17:52:38;0.40;99.90
15357;DHT22;7778;48.792;9.260;2023-02-08T17:55:25;0.40;99.90
15357;DHT22;7778;48.792;9.260;2023-02-08T17:58:11;0.30;99.90
15357;DHT22;7778;48.792;9.260;2023-02-08T18:00:57;0.30;99.90
15357;DHT22;7778;48.792;9.260;2023-02-08T18:03:45;0.20;99.90
15357;DHT22;7778;48.792;9.260;2023-02-08T18:06:33;0.10;99.90
15357;DHT22;7778;48.792;9.260;2023-02-08T18:09:18;0.30;99.90
15357;DHT22;7778;48.792;9.260;2023-02-08T18:12:05;0.00;99.90
15357;DHT22;7778;48.792;9.260;2023-02-08T18:14:51;0.00;99.90
15357;DHT22;7778;48.792;9.260;2023-02-08T18:17:37;0.00;99.90
15357;DHT22;7778;48.792;9.260;2023-02-08T18:20:24;0.00;99.90
15357;DHT22;7778;48.792;9.260;2023-02-08T18:23:11;0.00;99.90
15357;DHT22;7778;48.792;9.260;2023-02-08T18:26:03;0.20;99.90
15357;DHT22;7778;48.792;9.260;2023-02-08T18:28:50;0.00;99.90
15357;DHT22;7778;48.792;9.260;2023-02-08T18:31:36;-0.10;99.90
15357;DHT22;7778;48.792;9.260;2023-02-08T18:34:22;0.00;99.90